createdAt,value
2022-09-09T00:00:34.613Z,59.46
2022-09-09T00:03:12.094Z,59.57
2022-09-09T00:05:54.400Z,59.63
2022-09-09T00:08:27.298Z,59.81
2022-09-09T00:11:01.149Z,59.76
2022-09-09T00:13:36.284Z,59.69
2022-09-09T00:16:17.398Z,59.85
2022-09-09T00:18:59.414Z,59.82
2022-09-09T00:21:35.415Z,60.00
2022-09-09T00:24:11.295Z,59.83
2022-09-09T00:26:45.181Z,60.02
2022-09-09T00:29:24.615Z,59.93
2022-09-09T00:32:00.627Z,59.90
2022-09-09T00:34:30.539Z,60.00
2022-09-09T00:36:59.421Z,59.93
2022-09-09T00:39:39.814Z,59.88
2022-09-09T00:42:17.445Z,60.07
2022-09-09T00:45:04.088Z,60.33
2022-09-09T00:47:43.526Z,60.53
2022-09-09T00:50:26.080Z,60.51
2022-09-09T00:53:05.080Z,60.57
2022-09-09T00:55:42.774Z,60.60
2022-09-09T00:58:11.950Z,60.50
2022-09-09T01:00:46.624Z,60.57
2022-09-09T01:03:28.895Z,60.55
2022-09-09T01:06:04.644Z,60.71
2022-09-09T01:09:04.130Z,60.79
2022-09-09T01:11:39.357Z,60.97
2022-09-09T01:14:19.728Z,61.16
2022-09-09T01:16:49.172Z,61.25
2022-09-09T01:19:26.990Z,60.90
2022-09-09T01:22:04.385Z,61.09
2022-09-09T01:24:41.336Z,61.00
2022-09-09T01:27:13.016Z,60.95
2022-09-09T01:29:42.406Z,60.72
2022-09-09T01:32:42.351Z,60.75
2022-09-09T01:35:16.307Z,60.84
2022-09-09T01:37:44.744Z,60.62
2022-09-09T01:40:13.113Z,60.49
2022-09-09T01:42:43.201Z,60.33
2022-09-09T01:45:12.488Z,59.88
2022-09-09T01:47:41.216Z,60.06
2022-09-09T01:50:12.406Z,59.87
2022-09-09T01:52:41.044Z,59.69
2022-09-09T01:55:11.224Z,59.53
2022-09-09T01:57:50.292Z,59.75
2022-09-09T02:00:19.428Z,59.78
2022-09-09T02:02:58.687Z,59.61
2022-09-09T02:05:38.602Z,59.54
2022-09-09T02:08:10.959Z,59.57
2022-09-09T02:10:47.264Z,59.52
2022-09-09T02:13:19.867Z,59.66
2022-09-09T02:15:55.012Z,59.68
2022-09-09T02:18:27.460Z,59.80
2022-09-09T02:20:58.741Z,59.48
2022-09-09T02:23:28.065Z,59.55
2022-09-09T02:25:59.134Z,59.75
2022-09-09T02:28:32.892Z,59.91
2022-09-09T02:31:01.812Z,60.22
2022-09-09T02:33:35.571Z,60.04
2022-09-09T02:36:05.183Z,60.23
2022-09-09T02:38:39.308Z,60.11
2022-09-09T02:41:08.186Z,59.94
2022-09-09T02:43:38.299Z,59.94
2022-09-09T02:46:15.969Z,60.16
2022-09-09T02:48:53.910Z,59.95
2022-09-09T02:51:29.931Z,59.73
2022-09-09T02:54:07.887Z,59.94
2022-09-09T02:56:42.383Z,60.14
2022-09-09T02:59:12.750Z,60.13
2022-09-09T03:01:41.501Z,59.85
2022-09-09T03:04:10.373Z,60.08
2022-09-09T03:06:39.000Z,60.10
2022-09-09T03:09:09.479Z,60.11
2022-09-09T03:11:37.895Z,60.31
2022-09-09T03:14:06.778Z,60.27
2022-09-09T03:16:36.806Z,60.42
2022-09-09T03:19:07.462Z,60.39
2022-09-09T03:21:35.744Z,60.28
2022-09-09T03:24:04.884Z,60.20
2022-09-09T03:26:33.458Z,60.30
2022-09-09T03:29:02.572Z,60.35
2022-09-09T03:31:31.499Z,60.25
2022-09-09T03:34:02.087Z,60.48
2022-09-09T03:36:30.926Z,60.56
2022-09-09T03:39:00.136Z,60.52
2022-09-09T03:41:28.984Z,60.59
2022-09-09T03:43:57.384Z,60.49
2022-09-09T03:46:28.029Z,60.34
2022-09-09T03:48:56.389Z,60.65
2022-09-09T03:51:26.446Z,60.77
2022-09-09T03:53:59.319Z,60.62
2022-09-09T03:56:27.690Z,60.75
2022-09-09T03:58:56.060Z,60.74
2022-09-09T04:01:24.551Z,60.67
2022-09-09T04:03:53.847Z,60.34
2022-09-09T04:06:22.682Z,60.64
2022-09-09T04:08:53.764Z,60.70
2022-09-09T04:11:23.262Z,60.72
2022-09-09T04:13:51.604Z,61.00
2022-09-09T04:16:19.973Z,60.79
2022-09-09T04:18:48.699Z,60.46
2022-09-09T04:21:17.316Z,60.78
2022-09-09T04:23:45.781Z,60.77
2022-09-09T04:26:15.792Z,60.79
2022-09-09T04:28:44.348Z,60.70
2022-09-09T04:31:22.569Z,60.85
2022-09-09T04:33:51.165Z,60.90
2022-09-09T04:36:22.748Z,61.08
2022-09-09T04:38:51.195Z,61.02
2022-09-09T04:41:20.964Z,60.95
2022-09-09T04:43:49.638Z,61.05
2022-09-09T04:46:18.337Z,61.14
2022-09-09T04:48:46.661Z,61.29
2022-09-09T04:51:16.326Z,61.16
2022-09-09T04:53:44.780Z,61.32
2022-09-09T04:56:15.040Z,61.24
2022-09-09T04:58:45.242Z,61.27
2022-09-09T05:01:16.328Z,61.56
2022-09-09T05:03:46.528Z,61.25
2022-09-09T05:06:17.342Z,61.48
2022-09-09T05:08:46.467Z,61.60
2022-09-09T05:11:23.519Z,61.63
2022-09-09T05:13:54.211Z,61.81
2022-09-09T05:16:24.094Z,61.82
2022-09-09T05:18:53.105Z,61.88
2022-09-09T05:21:22.804Z,62.01
2022-09-09T05:23:52.113Z,61.79
2022-09-09T05:26:23.088Z,61.74
2022-09-09T05:28:52.949Z,61.61
2022-09-09T05:31:22.146Z,61.73
2022-09-09T05:33:51.581Z,61.90
2022-09-09T05:36:21.834Z,61.60
2022-09-09T05:38:51.031Z,61.62
2022-09-09T05:41:21.080Z,61.39
2022-09-09T05:43:49.979Z,61.74
2022-09-09T05:46:21.958Z,61.73
2022-09-09T05:48:52.589Z,61.69
2022-09-09T05:51:23.123Z,61.69
2022-09-09T05:53:52.333Z,61.49
2022-09-09T05:56:22.996Z,61.38
2022-09-09T05:58:52.879Z,61.45
2022-09-09T06:01:24.644Z,61.42
2022-09-09T06:03:54.202Z,61.26
2022-09-09T06:06:25.030Z,61.07
2022-09-09T06:08:55.439Z,61.28
2022-09-09T06:11:25.768Z,61.17
2022-09-09T06:13:55.779Z,60.97
2022-09-09T06:16:27.664Z,60.90
2022-09-09T06:18:57.539Z,60.82
2022-09-09T06:21:28.067Z,60.92
2022-09-09T06:24:00.353Z,60.97
2022-09-09T06:26:31.779Z,61.11
2022-09-09T06:29:01.230Z,61.17
2022-09-09T06:31:32.504Z,60.84
2022-09-09T06:34:01.665Z,60.34
2022-09-09T06:36:32.239Z,60.56
2022-09-09T06:39:01.140Z,60.80
2022-09-09T06:41:31.398Z,60.73
2022-09-09T06:43:59.937Z,60.76
2022-09-09T06:46:32.296Z,60.94
2022-09-09T06:49:01.469Z,60.87
2022-09-09T06:51:31.614Z,60.83
2022-09-09T06:54:03.331Z,60.78
2022-09-09T06:56:33.784Z,60.91
2022-09-09T06:59:05.162Z,60.78
2022-09-09T07:01:37.502Z,60.52
2022-09-09T07:04:09.052Z,60.69
2022-09-09T07:06:39.569Z,60.61
2022-09-09T07:09:09.992Z,60.61
2022-09-09T07:11:42.344Z,60.59
2022-09-09T07:14:14.044Z,60.36
2022-09-09T07:16:44.157Z,60.42
2022-09-09T07:19:13.803Z,60.26
2022-09-09T07:21:42.433Z,60.33
2022-09-09T07:24:13.461Z,60.08
2022-09-09T07:26:42.674Z,60.09
2022-09-09T07:29:11.956Z,59.88
2022-09-09T07:31:41.974Z,60.09
2022-09-09T07:34:11.839Z,60.04
2022-09-09T07:36:43.240Z,60.31
2022-09-09T07:39:14.313Z,59.92
2022-09-09T07:41:45.144Z,59.87
2022-09-09T07:44:15.473Z,59.95
2022-09-09T07:46:44.616Z,59.92
2022-09-09T07:49:14.663Z,59.95
2022-09-09T07:51:45.063Z,59.86
2022-09-09T07:54:16.338Z,59.81
2022-09-09T07:56:45.155Z,59.69
2022-09-09T07:59:13.544Z,59.84
2022-09-09T08:01:44.818Z,59.69
2022-09-09T08:04:17.759Z,59.54
2022-09-09T08:06:48.674Z,59.62
2022-09-09T08:09:18.361Z,59.64
2022-09-09T08:11:48.174Z,59.34
2022-09-09T08:14:17.080Z,59.36
2022-09-09T08:16:47.467Z,59.47
2022-09-09T08:19:18.167Z,59.34
2022-09-09T08:21:47.255Z,59.22
2022-09-09T08:24:16.322Z,59.25
2022-09-09T08:26:46.262Z,59.04
2022-09-09T08:29:15.772Z,58.77
2022-09-09T08:31:45.685Z,58.66
2022-09-09T08:34:14.247Z,58.74
2022-09-09T08:36:46.014Z,58.73
2022-09-09T08:39:16.140Z,58.74
2022-09-09T08:42:06.211Z,58.53
2022-09-09T08:44:48.997Z,58.67
2022-09-09T08:47:33.875Z,58.81
2022-09-09T08:50:17.514Z,58.27
2022-09-09T08:52:53.748Z,58.20
2022-09-09T08:55:37.956Z,57.93
2022-09-09T08:58:14.071Z,57.53
2022-09-09T09:00:53.855Z,57.17
2022-09-09T09:03:31.659Z,57.23
2022-09-09T09:06:17.260Z,56.97
2022-09-09T09:08:54.189Z,57.22
2022-09-09T09:11:23.619Z,56.83
2022-09-09T09:13:57.777Z,56.86
2022-09-09T09:16:33.494Z,56.68
2022-09-09T09:19:02.883Z,56.45
2022-09-09T09:21:38.868Z,56.05
2022-09-09T09:24:21.261Z,55.86
2022-09-09T09:26:50.819Z,55.78
2022-09-09T09:29:21.199Z,55.78
2022-09-09T09:31:55.831Z,56.27
2022-09-09T09:34:25.563Z,56.24
2022-09-09T09:36:57.299Z,56.29
2022-09-09T09:42:23.756Z,56.45
2022-09-09T09:44:52.501Z,56.15
2022-09-09T09:47:23.206Z,56.17
2022-09-09T09:49:56.804Z,56.17
2022-09-09T09:52:26.531Z,55.59
2022-09-09T09:54:58.459Z,55.57
2022-09-09T09:57:30.472Z,55.42
2022-09-09T10:00:15.157Z,55.52
2022-09-09T10:02:45.533Z,55.72
2022-09-09T10:05:20.996Z,55.51
2022-09-09T10:08:03.600Z,55.04
2022-09-09T10:10:47.965Z,55.24
2022-09-09T10:13:25.062Z,55.17
2022-09-09T10:16:05.497Z,54.77
2022-09-09T10:18:51.711Z,54.19
2022-09-09T10:21:50.981Z,54.37
2022-09-09T10:24:42.869Z,54.38
2022-09-09T10:27:22.746Z,54.15
2022-09-09T10:30:03.928Z,54.19
2022-09-09T10:32:48.667Z,53.16
2022-09-09T10:35:30.104Z,52.71
2022-09-09T10:38:15.044Z,53.07
2022-09-09T10:41:04.123Z,53.52
2022-09-09T10:43:50.941Z,52.06
2022-09-09T10:46:28.497Z,50.65
2022-09-09T10:49:08.172Z,51.10
2022-09-09T10:51:46.302Z,50.90
2022-09-09T10:54:45.515Z,50.94
2022-09-09T10:57:19.572Z,50.25
2022-09-09T10:59:53.476Z,50.44
2022-09-09T11:02:28.787Z,50.20
2022-09-09T11:05:03.745Z,50.43
2022-09-09T11:07:40.964Z,50.16
2022-09-09T11:10:21.436Z,50.50
2022-09-09T11:12:54.917Z,49.43
2022-09-09T11:15:31.645Z,49.04
2022-09-09T11:18:03.717Z,49.28
2022-09-09T11:20:33.339Z,49.04
2022-09-09T11:23:06.101Z,48.46
2022-09-09T11:25:38.780Z,48.14
2022-09-09T11:28:20.517Z,47.29
2022-09-09T11:31:02.923Z,47.26
2022-09-09T11:33:51.367Z,47.01
2022-09-09T11:36:38.400Z,47.88
2022-09-09T11:39:25.459Z,47.76
2022-09-09T11:41:53.772Z,47.85
2022-09-09T11:44:29.588Z,47.94
2022-09-09T11:46:59.387Z,46.99
2022-09-09T11:49:42.634Z,46.77
2022-09-09T11:52:15.390Z,46.43
2022-09-09T11:54:50.507Z,46.00
2022-09-09T11:57:33.452Z,46.09
2022-09-09T12:00:01.807Z,46.47
2022-09-09T12:02:33.083Z,46.74
2022-09-09T12:05:09.731Z,46.80
2022-09-09T12:07:41.148Z,46.59
2022-09-09T12:10:26.316Z,46.79
2022-09-09T12:12:54.923Z,46.97
2022-09-09T12:15:31.161Z,46.96
2022-09-09T12:18:03.998Z,47.28
2022-09-09T12:20:38.090Z,47.50
2022-09-09T12:23:27.921Z,47.33
2022-09-09T12:26:28.035Z,47.57
2022-09-09T12:29:07.910Z,47.31
2022-09-09T12:31:45.715Z,47.11
2022-09-09T12:34:19.305Z,46.80
2022-09-09T12:36:54.204Z,46.19
2022-09-09T12:39:35.240Z,44.95
2022-09-09T12:42:05.146Z,45.04
2022-09-09T12:44:34.173Z,44.61
2022-09-09T12:47:06.096Z,43.08
2022-09-09T12:49:39.863Z,43.87
2022-09-09T12:52:11.151Z,44.17
2022-09-09T12:54:40.060Z,44.15
2022-09-09T12:57:13.535Z,44.48
2022-09-09T12:59:46.268Z,44.75
2022-09-09T13:02:22.178Z,44.78
2022-09-09T13:04:52.791Z,45.29
2022-09-09T13:07:22.807Z,45.92
2022-09-09T13:09:51.890Z,46.03
2022-09-09T13:12:23.670Z,46.13
2022-09-09T13:14:56.196Z,45.92
2022-09-09T13:17:26.487Z,46.35
2022-09-09T13:19:57.299Z,46.35
2022-09-09T13:22:34.159Z,46.04
2022-09-09T13:25:06.019Z,46.18
2022-09-09T13:27:39.843Z,46.03
2022-09-09T13:30:25.132Z,45.82
2022-09-09T13:33:18.435Z,45.63
2022-09-09T13:35:53.040Z,45.64
2022-09-09T13:38:27.077Z,45.69
2022-09-09T13:41:00.408Z,44.88
2022-09-09T13:43:29.966Z,44.93
2022-09-09T13:46:00.315Z,44.97
2022-09-09T13:48:29.697Z,44.79
2022-09-09T13:51:05.712Z,44.51
2022-09-09T13:53:34.301Z,44.47
2022-09-09T13:56:03.151Z,44.41
2022-09-09T13:58:31.877Z,44.09
2022-09-09T14:01:00.341Z,44.48
2022-09-09T14:03:28.817Z,43.23
2022-09-09T14:05:57.198Z,43.13
2022-09-09T14:08:29.949Z,43.72
2022-09-09T14:10:59.441Z,43.54
2022-09-09T14:13:27.907Z,43.68
2022-09-09T14:15:56.267Z,43.70
2022-09-09T14:18:26.532Z,44.02
2022-09-09T14:20:55.104Z,43.60
2022-09-09T14:23:23.880Z,43.87
2022-09-09T14:25:54.388Z,44.21
2022-09-09T14:28:34.241Z,44.05
2022-09-09T14:31:12.221Z,44.36
2022-09-09T14:33:40.599Z,44.38
2022-09-09T14:36:09.179Z,44.37
2022-09-09T14:38:40.776Z,44.20
2022-09-09T14:41:13.016Z,44.04
2022-09-09T14:43:41.691Z,44.07
2022-09-09T14:46:11.593Z,44.16
2022-09-09T14:48:41.768Z,44.25
2022-09-09T14:51:11.507Z,44.19
2022-09-09T14:53:39.908Z,44.30
2022-09-09T14:56:12.100Z,44.41
2022-09-09T14:58:40.671Z,44.61
2022-09-09T15:01:12.013Z,44.64
2022-09-09T15:03:41.719Z,44.24
2022-09-09T15:06:11.187Z,44.13
2022-09-09T15:08:42.538Z,44.35
2022-09-09T15:11:14.111Z,44.49
2022-09-09T15:13:44.246Z,43.89
2022-09-09T15:16:15.156Z,43.22
2022-09-09T15:18:46.177Z,43.80
2022-09-09T15:21:16.668Z,43.71
2022-09-09T15:23:46.179Z,44.08
2022-09-09T15:26:16.357Z,44.36
2022-09-09T15:28:46.143Z,44.11
2022-09-09T15:31:18.694Z,43.68
2022-09-09T15:33:50.209Z,43.72
2022-09-09T15:36:20.258Z,43.82
2022-09-09T15:38:48.660Z,44.04
2022-09-09T15:41:20.444Z,43.03
2022-09-09T15:43:51.047Z,42.96
2022-09-09T15:46:28.962Z,43.03
2022-09-09T15:48:58.807Z,43.32
2022-09-09T15:51:42.260Z,43.69
2022-09-09T15:54:13.411Z,43.59
2022-09-09T15:56:44.422Z,43.25
2022-09-09T15:59:13.963Z,43.26
2022-09-09T16:01:45.323Z,43.30
2022-09-09T16:04:14.092Z,43.93
2022-09-09T16:06:44.057Z,44.03
2022-09-09T16:09:13.186Z,43.69
2022-09-09T16:11:43.524Z,43.51
2022-09-09T16:14:12.518Z,43.71
2022-09-09T16:16:43.160Z,43.09
2022-09-09T16:19:13.948Z,43.02
2022-09-09T16:21:45.292Z,43.83
2022-09-09T16:24:16.522Z,44.22
2022-09-09T16:26:48.364Z,43.83
2022-09-09T16:29:18.529Z,43.92
2022-09-09T16:31:49.044Z,44.02
2022-09-09T16:34:19.401Z,44.57
2022-09-09T16:36:49.414Z,44.90
2022-09-09T16:39:21.238Z,44.74
2022-09-09T16:41:52.627Z,44.51
2022-09-09T16:44:21.496Z,44.30
2022-09-09T16:46:56.699Z,44.88
2022-09-09T16:49:28.664Z,45.45
2022-09-09T16:52:00.432Z,45.07
2022-09-09T16:54:30.289Z,45.05
2022-09-09T16:57:01.819Z,45.10
2022-09-09T16:59:31.554Z,44.86
2022-09-09T17:02:00.251Z,44.94
2022-09-09T17:04:29.762Z,45.15
2022-09-09T17:06:58.535Z,45.74
2022-09-09T17:09:30.361Z,45.95
2022-09-09T17:12:01.121Z,46.25
2022-09-09T17:14:29.574Z,46.92
2022-09-09T17:17:09.381Z,47.37
2022-09-09T17:19:47.413Z,47.34
2022-09-09T17:22:17.795Z,47.02
2022-09-09T17:24:46.832Z,47.00
2022-09-09T17:27:17.028Z,46.85
2022-09-09T17:29:45.797Z,46.76
2022-09-09T17:32:14.234Z,46.76
2022-09-09T17:34:42.605Z,47.30
2022-09-09T17:37:11.005Z,47.43
2022-09-09T17:39:39.521Z,47.81
2022-09-09T17:42:09.174Z,47.76
2022-09-09T17:44:40.339Z,47.87
2022-09-09T17:47:08.851Z,47.93
2022-09-09T17:49:37.706Z,47.99
2022-09-09T17:52:06.968Z,48.04
2022-09-09T17:54:35.932Z,48.18
2022-09-09T17:57:04.511Z,48.52
2022-09-09T17:59:32.848Z,48.56
2022-09-09T18:02:06.264Z,48.43
2022-09-09T18:04:34.709Z,48.62
2022-09-09T18:07:03.289Z,48.60
2022-09-09T18:09:32.667Z,49.00
2022-09-09T18:12:01.839Z,48.72
2022-09-09T18:14:32.438Z,48.83
2022-09-09T18:17:04.195Z,49.01
2022-09-09T18:19:36.310Z,48.88
2022-09-09T18:22:07.075Z,49.04
2022-09-09T18:24:38.020Z,49.00
2022-09-09T18:27:07.864Z,49.09
2022-09-09T18:29:38.020Z,49.10
2022-09-09T18:32:08.457Z,48.91
2022-09-09T18:34:36.909Z,48.90
2022-09-09T18:37:08.466Z,48.81
2022-09-09T18:39:37.862Z,48.82
2022-09-09T18:42:07.351Z,48.94
2022-09-09T18:44:37.077Z,48.95
2022-09-09T18:47:05.731Z,49.05
2022-09-09T18:49:35.532Z,49.03
2022-09-09T18:52:04.624Z,49.08
2022-09-09T18:54:35.272Z,49.28
2022-09-09T18:57:04.636Z,49.22
2022-09-09T18:59:33.576Z,49.42
2022-09-09T19:02:02.194Z,49.43
2022-09-09T19:04:32.970Z,49.84
2022-09-09T19:07:03.035Z,49.95
2022-09-09T19:09:35.013Z,50.13
2022-09-09T19:12:04.016Z,50.21
2022-09-09T19:14:33.885Z,50.43
2022-09-09T19:17:02.768Z,50.51
2022-09-09T19:19:33.656Z,50.75
2022-09-09T19:22:09.100Z,50.65
2022-09-09T19:24:38.431Z,50.57
2022-09-09T19:27:08.855Z,50.74
2022-09-09T19:29:41.007Z,51.10
2022-09-09T19:34:59.633Z,51.33
2022-09-09T19:37:29.515Z,51.06
2022-09-09T19:39:58.437Z,51.30
2022-09-09T19:42:27.692Z,51.40
2022-09-09T19:44:56.964Z,51.60
2022-09-09T19:47:26.088Z,51.65
2022-09-09T19:49:55.193Z,51.85
2022-09-09T19:52:23.679Z,51.94
2022-09-09T19:54:53.426Z,51.91
2022-09-09T19:57:22.932Z,52.15
2022-09-09T19:59:51.328Z,52.29
2022-09-09T20:02:19.827Z,52.34
2022-09-09T20:04:48.300Z,52.42
2022-09-09T20:07:16.666Z,52.53
2022-09-09T20:09:45.096Z,52.62
2022-09-09T20:12:14.834Z,52.43
2022-09-09T20:14:43.287Z,52.76
2022-09-09T20:17:12.070Z,52.72
2022-09-09T20:19:41.300Z,52.70
2022-09-09T20:22:09.757Z,52.91
2022-09-09T20:24:38.380Z,52.97
2022-09-09T20:27:09.655Z,53.39
2022-09-09T20:29:39.705Z,53.41
2022-09-09T20:32:08.568Z,53.38
2022-09-09T20:34:37.029Z,53.58
2022-09-09T20:37:06.525Z,53.78
2022-09-09T20:39:36.456Z,53.87
2022-09-09T20:42:05.468Z,53.99
2022-09-09T20:44:33.929Z,54.16
2022-09-09T20:47:07.388Z,54.35
2022-09-09T20:49:36.553Z,54.47
2022-09-09T20:52:06.204Z,54.63
2022-09-09T20:54:36.151Z,55.01
2022-09-09T20:57:04.619Z,55.03
2022-09-09T20:59:34.836Z,55.08
2022-09-09T21:02:05.167Z,55.16
2022-09-09T21:04:33.616Z,55.21
2022-09-09T21:07:02.773Z,55.58
2022-09-09T21:09:31.199Z,55.64
2022-09-09T21:11:59.715Z,55.59
2022-09-09T21:14:28.645Z,55.68
2022-09-09T21:16:57.003Z,55.91
2022-09-09T21:19:26.813Z,55.88
2022-09-09T21:21:55.113Z,55.99
2022-09-09T21:24:24.025Z,56.17
2022-09-09T21:26:54.745Z,56.50
2022-09-09T21:29:24.347Z,56.49
2022-09-09T21:31:53.252Z,56.71
2022-09-09T21:34:21.936Z,56.71
2022-09-09T21:36:51.806Z,56.95
2022-09-09T21:39:20.341Z,57.19
2022-09-09T21:41:49.585Z,57.23
2022-09-09T21:44:19.342Z,57.20
2022-09-09T21:46:48.018Z,57.50
2022-09-09T21:49:16.961Z,57.43
2022-09-09T21:51:45.953Z,57.68
2022-09-09T21:54:15.837Z,57.72
2022-09-09T21:56:44.263Z,57.73
2022-09-09T21:59:12.612Z,58.03
2022-09-09T22:01:41.967Z,58.16
2022-09-09T22:04:10.742Z,58.19
2022-09-09T22:06:39.675Z,58.24
2022-09-09T22:09:08.075Z,58.25
2022-09-09T22:11:37.844Z,58.37
2022-09-09T22:14:06.645Z,58.62
2022-09-09T22:16:35.200Z,58.64
2022-09-09T22:19:04.104Z,58.69
2022-09-09T22:21:34.274Z,58.62
2022-09-09T22:24:05.596Z,58.67
2022-09-09T22:26:36.393Z,58.55
2022-09-09T22:29:07.800Z,58.65
2022-09-09T22:31:37.779Z,58.85
2022-09-09T22:34:07.044Z,58.98
2022-09-09T22:36:35.745Z,59.08
2022-09-09T22:39:04.584Z,59.07
2022-09-09T22:41:34.128Z,59.21
2022-09-09T22:44:02.947Z,59.22
2022-09-09T22:46:32.763Z,59.32
2022-09-09T22:49:03.907Z,59.19
2022-09-09T22:51:34.487Z,59.34
2022-09-09T22:54:02.987Z,59.47
2022-09-09T22:56:31.388Z,59.61
2022-09-09T22:58:59.755Z,59.62
2022-09-09T23:01:29.398Z,59.86
2022-09-09T23:04:02.886Z,59.92
2022-09-09T23:06:31.885Z,60.15
2022-09-09T23:09:02.694Z,60.24
2022-09-09T23:11:33.472Z,60.23
2022-09-09T23:14:03.983Z,60.45
2022-09-09T23:16:35.458Z,60.43
2022-09-09T23:19:07.153Z,60.12
2022-09-09T23:21:35.788Z,60.28
2022-09-09T23:24:06.212Z,60.22
2022-09-09T23:26:35.240Z,60.50
2022-09-09T23:29:03.827Z,60.43
2022-09-09T23:31:38.053Z,60.60
2022-09-09T23:34:08.372Z,60.83
2022-09-09T23:36:37.861Z,60.70
2022-09-09T23:39:07.839Z,61.10
2022-09-09T23:41:37.847Z,61.09
2022-09-09T23:44:07.447Z,61.10
2022-09-09T23:46:36.672Z,61.11
2022-09-09T23:49:08.486Z,61.04
2022-09-09T23:51:39.285Z,61.20
2022-09-09T23:54:10.021Z,61.36
2022-09-09T23:56:40.583Z,61.19
2022-09-09T23:59:09.822Z,61.19
